Time;durP1;ratioP1;P1;durP2;ratioP2;P2;SDS_P1;SDS_P2;PMS_P1;PMS_P2;Temp;Humidity;BMP_temperature;BMP_pressure;BME280_temperature;BME280_humidity;BME280_pressure;Samples;Min_cycle;Max_cycle;Signal;HPM_P1;HPM_P2
2021/03/26 00:00:52;;;;;;;84.13;44.60;;;;;;;11.94;56.99;101126.88;5031476;28;20021;-63
2021/03/26 00:03:23;;;;;;;68.22;41.03;;;;;;;11.54;57.62;101128.03;5054482;28;20021;-61
2021/03/26 00:05:52;;;;;;;77.25;44.80;;;;;;;11.13;59.79;101132.63;5036310;28;20098;-62
2021/03/26 00:08:18;;;;;;;86.70;44.92;;;;;;;10.71;60.41;101129.25;5051415;28;20025;-62
2021/03/26 00:10:44;;;;;;;80.28;46.00;;;;;;;11.07;59.79;101124.72;5050390;28;20039;-61
2021/03/26 00:13:10;;;;;;;85.95;45.63;;;;;;;10.98;59.46;101128.31;5054475;28;20122;-62
2021/03/26 00:15:36;;;;;;;77.60;45.22;;;;;;;11.64;57.87;101134.13;5033583;28;20029;-61
2021/03/26 00:18:02;;;;;;;103.28;50.08;;;;;;;11.87;56.75;101130.47;5033483;28;20508;-62
2021/03/26 00:20:27;;;;;;;69.53;43.58;;;;;;;11.64;57.47;101126.22;5046140;28;20028;-62
2021/03/26 00:22:53;;;;;;;82.82;44.05;;;;;;;11.82;57.11;101121.69;5037630;28;20036;-62
2021/03/26 00:25:18;;;;;;;76.40;43.03;;;;;;;11.33;58.42;101122.88;5039473;28;20032;-62
2021/03/26 00:27:43;;;;;;;73.38;44.22;;;;;;;11.88;57.17;101126.06;5042381;28;20029;-62
2021/03/26 00:30:11;;;;;;;81.22;45.85;;;;;;;12.04;56.40;101121.53;5046626;28;20468;-63
2021/03/26 00:32:38;;;;;;;77.55;44.13;;;;;;;11.13;59.08;101122.09;5043591;28;20500;-62
2021/03/26 00:35:06;;;;;;;81.32;48.08;;;;;;;10.97;59.41;101126.53;5036968;28;20021;-62
2021/03/26 00:37:31;;;;;;;83.70;47.25;;;;;;;10.98;59.31;101128.31;5045918;28;20025;-62
2021/03/26 00:39:56;;;;;;;84.60;51.58;;;;;;;10.66;60.33;101129.25;5052702;28;20031;-62
2021/03/26 00:42:22;;;;;;;82.57;48.45;;;;;;;10.50;61.17;101137.19;5062957;28;20025;-63
2021/03/26 00:44:47;;;;;;;101.85;53.47;;;;;;;10.83;60.50;101134.50;5051127;28;20517;-63
2021/03/26 00:47:13;;;;;;;95.70;50.60;;;;;;;10.82;60.20;101127.47;5037330;28;20029;-62
2021/03/26 00:49:38;;;;;;;94.03;49.65;;;;;;;10.67;60.47;101133.66;5035875;28;20075;-63
2021/03/26 00:52:05;;;;;;;81.93;48.40;;;;;;;10.40;61.14;101125.75;5035839;28;20072;-63
2021/03/26 00:54:31;;;;;;;92.82;50.42;;;;;;;10.49;61.39;101124.00;5053710;28;20021;-63
2021/03/26 00:56:56;;;;;;;90.72;51.65;;;;;;;11.40;59.19;101121.94;5043029;28;20737;-62
2021/03/26 00:59:22;;;;;;;87.15;48.08;;;;;;;11.85;57.44;101116.41;5048701;28;20488;-63
2021/03/26 01:01:47;;;;;;;87.07;48.92;;;;;;;12.24;56.32;101112.59;5052772;28;20040;-64
2021/03/26 01:04:12;;;;;;;90.20;49.50;;;;;;;11.49;57.49;101108.69;5052956;28;20024;-64
2021/03/26 01:06:38;;;;;;;87.88;50.80;;;;;;;11.29;58.71;101122.00;5053523;28;20476;-62
2021/03/26 01:09:04;;;;;;;89.85;50.00;;;;;;;12.09;56.69;101116.22;5038057;28;20013;-64
2021/03/26 01:11:32;;;;;;;90.32;46.85;;;;;;;12.16;56.31;101116.19;5016003;28;20080;-64
2021/03/26 01:13:57;;;;;;;79.10;46.47;;;;;;;11.87;57.69;101109.31;5024686;28;20111;-64
2021/03/26 01:16:25;;;;;;;80.90;47.70;;;;;;;11.28;59.46;101107.91;5035833;28;20112;-62
2021/03/26 01:18:51;;;;;;;88.45;48.58;;;;;;;11.16;59.76;101103.59;5053024;28;20024;-64
2021/03/26 01:21:26;;;;;;;88.13;50.08;;;;;;;10.88;60.83;101105.47;5043112;28;20033;-63
2021/03/26 01:23:51;;;;;;;95.90;51.67;;;;;;;11.55;58.87;101103.38;5020151;28;20025;-62
2021/03/26 01:26:16;;;;;;;89.68;49.20;;;;;;;11.49;58.37;101103.41;5042375;28;20372;-62
2021/03/26 01:28:42;;;;;;;91.03;48.70;;;;;;;11.75;57.31;101101.50;5051796;28;20033;-62
2021/03/26 01:31:07;;;;;;;85.60;49.45;;;;;;;11.52;57.53;101097.22;5052899;28;20380;-63
2021/03/26 01:33:33;;;;;;;97.25;49.60;;;;;;;11.21;58.34;101092.13;5033248;28;20028;-62
2021/03/26 01:35:58;;;;;;;91.82;49.80;;;;;;;11.58;57.35;101099.84;5033581;28;20084;-63
2021/03/26 01:38:24;;;;;;;80.80;44.38;;;;;;;11.47;56.59;101091.13;5037967;28;20036;-62
2021/03/26 01:40:54;;;;;;;82.28;45.90;;;;;;;10.61;59.09;101096.75;5052144;28;20033;-63
2021/03/26 01:43:23;;;;;;;77.55;43.88;;;;;;;10.89;58.78;101105.47;5049688;28;20029;-62
2021/03/26 01:45:49;;;;;;;78.80;45.38;;;;;;;11.20;57.64;101090.38;5035001;28;20056;-63
2021/03/26 01:48:26;;;;;;;94.75;50.95;;;;;;;10.18;60.82;101092.38;5039198;28;20067;-63
2021/03/26 01:50:52;;;;;;;96.25;52.30;;;;;;;9.77;62.57;101095.00;5015288;28;20071;-62
2021/03/26 01:53:18;;;;;;;87.28;49.30;;;;;;;9.69;62.68;101091.47;5032973;28;20431;-62
2021/03/26 01:55:46;;;;;;;98.53;54.17;;;;;;;9.83;62.57;101097.66;5047040;28;20098;-62
2021/03/26 01:58:13;;;;;;;99.97;53.25;;;;;;;10.63;59.94;101097.59;5023426;28;20614;-62
2021/03/26 02:00:42;;;;;;;103.28;53.63;;;;;;;10.13;61.20;101097.66;5019387;28;20025;-63
2021/03/26 02:03:23;;;;;;;103.35;51.08;;;;;;;10.70;59.61;101095.84;5032702;28;20088;-62
2021/03/26 02:05:51;;;;;;;88.70;49.97;;;;;;;10.46;58.99;101081.81;5015060;28;20100;-62
2021/03/26 02:08:21;;;;;;;89.90;50.42;;;;;;;9.33;61.28;101087.03;5031288;28;20064;-62
2021/03/26 02:10:46;;;;;;;95.95;51.10;;;;;;;9.69;60.60;101083.56;5020700;28;20023;-61
2021/03/26 02:13:25;;;;;;;99.70;52.05;;;;;;;10.08;59.02;101096.78;5045720;28;20017;-63
2021/03/26 02:15:51;;;;;;;97.32;50.97;;;;;;;9.47;61.03;101094.97;5014532;28;20028;-63
2021/03/26 02:18:26;;;;;;;94.00;52.20;;;;;;;8.93;62.83;101097.41;5014733;28;20026;-63
2021/03/26 02:20:55;;;;;;;97.63;50.70;;;;;;;8.53;63.39;101104.22;5019700;28;20029;-63
2021/03/26 02:23:24;;;;;;;92.82;49.30;;;;;;;8.68;62.73;101107.81;5020579;28;20079;-63
2021/03/26 02:25:50;;;;;;;98.25;55.00;;;;;;;8.29;64.08;101100.53;5038378;28;20023;-63
2021/03/26 02:28:16;;;;;;;105.10;56.05;;;;;;;8.99;62.84;101102.69;5020722;28;20037;-63
2021/03/26 02:30:48;;;;;;;94.78;51.00;;;;;;;9.00;60.87;101111.47;5051657;28;20032;-63
2021/03/26 02:33:14;;;;;;;88.25;49.10;;;;;;;9.55;58.75;101113.41;5048962;28;20495;-63
2021/03/26 02:35:43;;;;;;;96.70;51.05;;;;;;;8.80;61.48;101125.41;5031533;28;20037;-63
2021/03/26 02:38:28;;;;;;;88.60;49.97;;;;;;;9.53;58.92;101119.56;5040425;28;20025;-63
2021/03/26 02:41:14;;;;;;;95.55;51.15;;;;;;;9.07;60.11;101116.75;5042303;28;20033;-64
2021/03/26 02:43:45;;;;;;;96.45;49.35;;;;;;;8.34;60.40;101117.19;5026012;28;20448;-63
2021/03/26 02:46:17;;;;;;;103.70;56.17;;;;;;;8.14;62.27;101116.16;5034240;28;20492;-63
2021/03/26 02:48:56;;;;;;;113.45;56.55;;;;;;;7.87;63.94;101120.31;5032345;28;20029;-63
2021/03/26 02:51:44;;;;;;;113.35;56.55;;;;;;;7.71;63.97;101117.56;5042651;28;20029;-63
2021/03/26 02:54:18;;;;;;;109.18;56.47;;;;;;;7.63;63.95;101119.19;5046232;28;20025;-63
2021/03/26 02:56:53;;;;;;;113.65;57.45;;;;;;;7.26;64.72;101115.31;5026064;28;20108;-63
2021/03/26 02:59:22;;;;;;;121.32;60.38;;;;;;;7.51;64.36;101105.09;5036059;28;20485;-63
2021/03/26 03:01:51;;;;;;;111.28;57.08;;;;;;;7.54;64.09;101112.97;5037080;28;20450;-63
2021/03/26 03:04:25;;;;;;;112.00;59.00;;;;;;;7.77;63.57;101114.09;5049037;28;20021;-63
2021/03/26 03:06:55;;;;;;;112.60;56.95;;;;;;;8.43;61.93;101118.13;5047876;28;20021;-63
2021/03/26 03:09:23;;;;;;;114.10;57.75;;;;;;;7.88;63.09;101122.97;5042346;28;20028;-63
2021/03/26 03:12:06;;;;;;;105.85;55.17;;;;;;;8.06;62.70;101130.13;5041079;28;20051;-62
2021/03/26 03:14:39;;;;;;;84.68;50.85;;;;;;;7.48;62.23;101123.44;5033687;28;20025;-62
2021/03/26 03:17:12;;;;;;;91.32;50.05;;;;;;;7.61;62.98;101126.19;5028950;28;20117;-62
2021/03/26 03:19:57;;;;;;;113.38;56.03;;;;;;;7.14;63.87;101126.53;5045622;28;20048;-63
2021/03/26 03:22:49;;;;;;;99.88;54.17;;;;;;;7.10;63.82;101123.88;5050827;28;20036;-62
2021/03/26 03:25:21;;;;;;;93.53;52.00;;;;;;;6.96;63.75;101127.19;5069857;28;20119;-63
2021/03/26 03:28:00;;;;;;;106.90;54.95;;;;;;;7.44;63.30;101134.78;5017892;28;20847;-63
2021/03/26 03:30:58;;;;;;;111.80;55.00;;;;;;;8.03;60.77;101140.59;5040323;28;20037;-63
2021/03/26 03:33:35;;;;;;;109.38;55.55;;;;;;;7.39;63.06;101136.44;5008273;28;20041;-63
2021/03/26 03:36:09;;;;;;;105.55;55.28;;;;;;;8.27;61.09;101136.41;5048393;28;20028;-63
2021/03/26 03:38:38;;;;;;;108.90;53.22;;;;;;;8.53;59.84;101141.00;5036585;28;20116;-63
2021/03/26 03:41:19;;;;;;;96.95;50.25;;;;;;;8.81;58.46;101129.81;5051124;28;20032;-63
2021/03/26 03:43:57;;;;;;;101.60;52.92;;;;;;;8.80;57.92;101134.16;5021481;28;20032;-63
2021/03/26 03:46:33;;;;;;;108.78;54.83;;;;;;;7.94;60.92;101120.38;5034231;28;20025;-62
2021/03/26 03:49:06;;;;;;;105.30;56.28;;;;;;;7.81;61.44;101123.78;5028610;28;20167;-64
2021/03/26 03:51:39;;;;;;;103.88;48.20;;;;;;;6.96;63.43;101129.81;5036101;28;20044;-64
2021/03/26 03:54:14;;;;;;;106.50;53.65;;;;;;;6.95;64.50;101125.44;5034169;28;20527;-64
2021/03/26 03:56:47;;;;;;;105.28;55.45;;;;;;;6.83;64.47;101117.41;5036153;28;20369;-63
2021/03/26 03:59:22;;;;;;;121.45;59.20;;;;;;;6.69;66.21;101128.56;5026363;28;20032;-63
2021/03/26 04:01:53;;;;;;;100.35;52.88;;;;;;;6.87;64.97;101121.81;5040338;28;20109;-64
2021/03/26 04:04:43;;;;;;;115.38;60.85;;;;;;;7.04;64.93;101125.53;5037291;28;20017;-64
2021/03/26 04:07:14;;;;;;;105.75;54.85;;;;;;;7.90;61.54;101122.97;5013588;28;20038;-63
2021/03/26 04:09:48;;;;;;;89.72;49.35;;;;;;;8.13;59.97;101132.81;5033736;28;20116;-64
2021/03/26 04:12:20;;;;;;;98.55;49.67;;;;;;;8.49;58.73;101128.69;5038965;28;20068;-63
2021/03/26 04:15:04;;;;;;;96.95;49.80;;;;;;;8.79;58.18;101131.53;5038600;28;20540;-63
2021/03/26 04:17:37;;;;;;;94.40;52.22;;;;;;;8.02;60.96;101133.59;5035746;28;20079;-61
2021/03/26 04:20:18;;;;;;;103.53;57.30;;;;;;;7.64;62.83;101141.97;5022602;28;20468;-63
2021/03/26 04:22:49;;;;;;;113.97;56.63;;;;;;;7.62;63.43;101144.59;5036918;28;20025;-61
2021/03/26 04:25:23;;;;;;;120.95;57.88;;;;;;;7.67;64.10;101144.63;5017202;28;20037;-61
2021/03/26 04:27:55;;;;;;;106.10;54.63;;;;;;;8.37;61.86;101139.97;5035087;28;20032;-62
2021/03/26 04:30:26;;;;;;;101.93;54.67;;;;;;;8.95;60.37;101143.03;5017153;28;20590;-63
2021/03/26 04:32:52;;;;;;;101.45;55.95;;;;;;;8.49;61.69;101139.22;5049241;28;20094;-62
2021/03/26 04:35:18;;;;;;;98.38;54.85;;;;;;;8.73;61.63;101148.16;5019246;28;20029;-63
2021/03/26 04:37:53;;;;;;;96.13;51.42;;;;;;;9.00;60.63;101149.19;5036010;28;20028;-63
2021/03/26 04:40:43;;;;;;;100.65;54.90;;;;;;;8.97;60.27;101141.28;5050859;28;20029;-64
2021/03/26 04:43:31;;;;;;;97.57;53.22;;;;;;;9.32;59.28;101137.94;5017935;28;20039;-63
2021/03/26 04:46:06;;;;;;;96.63;53.30;;;;;;;8.94;59.91;101131.59;5021065;28;20476;-62
2021/03/26 04:48:39;;;;;;;91.75;52.63;;;;;;;9.24;59.19;101135.25;5030507;28;20549;-63
2021/03/26 04:51:14;;;;;;;89.20;51.38;;;;;;;8.25;61.82;101134.63;5055189;28;20017;-63
2021/03/26 04:53:42;;;;;;;105.57;55.90;;;;;;;8.07;63.66;101136.25;5034147;28;20033;-62
2021/03/26 04:56:16;;;;;;;120.32;57.50;;;;;;;9.15;60.87;101129.97;5023948;28;20041;-63
2021/03/26 04:58:48;;;;;;;106.28;55.17;;;;;;;9.01;61.27;101132.53;5016366;28;20507;-63
2021/03/26 05:01:15;;;;;;;99.35;53.30;;;;;;;8.34;62.87;101129.47;5033121;28;20030;-64
2021/03/26 05:03:43;;;;;;;108.25;58.15;;;;;;;8.31;63.16;101126.81;5048879;28;20208;-62
2021/03/26 05:06:19;;;;;;;104.25;58.33;;;;;;;8.19;64.18;101127.59;5045191;28;20468;-62
2021/03/26 05:08:49;;;;;;;121.13;60.85;;;;;;;8.34;64.42;101126.84;5042837;28;20465;-63
2021/03/26 05:11:15;;;;;;;111.17;58.37;;;;;;;9.08;62.44;101141.34;5032874;28;20025;-63
2021/03/26 05:13:44;;;;;;;109.05;57.30;;;;;;;8.75;62.75;101135.00;5039752;28;20021;-63
2021/03/26 05:16:20;;;;;;;113.10;55.90;;;;;;;9.63;60.62;101129.22;5048886;28;20025;-61
2021/03/26 05:18:51;;;;;;;112.70;59.63;;;;;;;9.72;60.55;101123.09;5035756;28;20017;-62
2021/03/26 05:21:21;;;;;;;114.60;57.03;;;;;;;9.35;61.05;101130.06;5035644;28;20654;-62
2021/03/26 05:23:57;;;;;;;110.32;56.35;;;;;;;9.78;59.85;101128.38;5040763;28;20108;-62
2021/03/26 05:26:23;;;;;;;99.88;53.15;;;;;;;9.40;60.82;101142.34;5050200;28;20107;-63
2021/03/26 05:28:48;;;;;;;110.30;53.97;;;;;;;9.30;60.75;101134.41;5052996;28;20532;-63
2021/03/26 05:31:33;;;;;;;96.65;53.63;;;;;;;9.16;61.42;101141.34;5038187;28;20357;-62
2021/03/26 05:34:05;;;;;;;96.70;52.75;;;;;;;9.18;61.53;101129.09;5047193;28;20031;-63
2021/03/26 05:36:41;;;;;;;99.43;53.42;;;;;;;9.45;61.02;101143.22;5041610;28;20123;-62
2021/03/26 05:39:13;;;;;;;106.05;54.05;;;;;;;10.15;59.49;101132.81;5040934;28;20039;-62
2021/03/26 05:42:09;;;;;;;102.57;55.85;;;;;;;10.04;59.64;101138.06;5039664;28;20033;-62
2021/03/26 05:45:02;;;;;;;101.88;53.10;;;;;;;10.40;58.59;101132.78;5018806;28;20025;-62
2021/03/26 05:47:46;;;;;;;94.70;49.63;;;;;;;10.48;58.16;101135.44;4990093;28;20476;-63
2021/03/26 05:50:30;;;;;;;83.97;48.75;;;;;;;10.08;58.81;101145.13;5036119;28;20514;-63
2021/03/26 05:53:14;;;;;;;105.78;52.08;;;;;;;9.42;60.62;101148.47;5042383;28;20042;-62
2021/03/26 05:55:58;;;;;;;101.57;54.33;;;;;;;9.87;60.11;101146.81;5052391;28;20408;-63
2021/03/26 05:58:53;;;;;;;97.07;53.53;;;;;;;9.43;61.40;101137.06;5050813;28;20029;-62
2021/03/26 06:01:38;;;;;;;99.72;52.38;;;;;;;9.04;62.79;101148.31;5035382;28;20552;-61
2021/03/26 06:04:33;;;;;;;108.57;56.85;;;;;;;9.31;62.33;101151.09;5045431;28;20044;-62
2021/03/26 06:07:46;;;;;;;103.72;54.85;;;;;;;9.48;61.92;101164.31;5035036;28;20484;-61
2021/03/26 06:10:12;;;;;;;99.13;55.83;;;;;;;9.35;62.38;101148.47;4959312;28;20399;-62
2021/03/26 06:13:02;;;;;;;101.03;54.00;;;;;;;9.49;62.71;101145.00;5054589;28;20107;-61
2021/03/26 06:15:27;;;;;;;105.50;55.88;;;;;;;9.24;62.92;101155.44;5052427;28;20029;-61
2021/03/26 06:18:20;;;;;;;104.10;55.37;;;;;;;9.57;63.22;101138.00;5052527;28;20036;-61
2021/03/26 06:21:15;;;;;;;100.03;56.75;;;;;;;9.44;63.33;101155.50;5034548;28;20259;-61
2021/03/26 06:24:25;;;;;;;96.93;54.40;;;;;;;9.93;61.98;101145.06;5052283;28;20029;-62
2021/03/26 06:27:04;;;;;;;102.93;55.13;;;;;;;9.98;61.72;101149.47;5026355;28;20036;-61
2021/03/26 06:29:44;;;;;;;96.75;53.70;;;;;;;10.16;61.19;101138.94;5052445;28;20384;-62
2021/03/26 06:32:39;;;;;;;99.05;55.58;;;;;;;10.31;61.27;101146.88;5034135;28;20033;-61
2021/03/26 06:35:39;;;;;;;103.50;56.25;;;;;;;10.69;59.84;101144.19;5052169;28;20151;-62
2021/03/26 06:38:19;;;;;;;98.20;52.45;;;;;;;11.31;58.73;101136.09;5034245;28;20400;-61
2021/03/26 06:41:13;;;;;;;97.88;53.00;;;;;;;11.38;58.43;101136.94;5034163;28;20071;-62
2021/03/26 06:44:06;;;;;;;98.40;52.67;;;;;;;11.38;58.44;101145.75;5052064;28;20031;-61
2021/03/26 06:46:48;;;;;;;91.57;52.00;;;;;;;11.81;57.17;101146.38;5034226;28;20078;-62
2021/03/26 06:49:35;;;;;;;103.55;52.42;;;;;;;11.81;57.17;101147.25;5034002;28;20032;-61
2021/03/26 06:52:20;;;;;;;96.43;50.90;;;;;;;12.67;55.54;101151.84;5051809;28;20025;-62
2021/03/26 06:55:01;;;;;;;94.22;52.85;;;;;;;13.14;55.17;101164.56;5052189;28;20033;-62
2021/03/26 06:57:42;;;;;;;83.00;48.72;;;;;;;13.89;53.49;101157.44;5051496;28;20025;-62
2021/03/26 07:00:34;;;;;;;77.95;46.50;;;;;;;14.82;50.08;101155.00;5033870;28;20377;-64
2021/03/26 07:03:14;;;;;;;68.03;42.95;;;;;;;15.50;49.18;101143.00;5033908;28;20033;-62
2021/03/26 07:06:18;;;;;;;65.43;42.05;;;;;;;15.94;47.71;101152.63;5033978;28;20484;-64
2021/03/26 07:09:03;;;;;;;69.57;42.72;;;;;;;16.95;46.71;101151.84;5033779;28;20364;-64
2021/03/26 07:11:52;;;;;;;67.88;43.17;;;;;;;17.10;45.23;101141.72;5051443;28;20071;-64
2021/03/26 07:14:20;;;;;;;68.03;42.75;;;;;;;17.15;45.19;101147.78;5051602;28;20028;-62
2021/03/26 07:17:01;;;;;;;64.05;41.70;;;;;;;17.11;45.55;101140.78;5051465;28;20108;-64
2021/03/26 07:19:41;;;;;;;69.63;43.05;;;;;;;17.68;45.18;101130.19;5051482;28;20551;-62
2021/03/26 07:22:47;;;;;;;65.82;41.85;;;;;;;17.90;43.99;101127.69;5017163;28;20099;-61
2021/03/26 07:25:42;;;;;;;68.30;44.00;;;;;;;18.40;44.74;101146.53;5051531;28;20049;-63
2021/03/26 07:28:17;;;;;;;62.53;40.67;;;;;;;17.94;45.51;101142.69;5051478;28;20112;-64
2021/03/26 07:30:58;;;;;;;71.65;43.53;;;;;;;17.36;47.66;101153.38;5033762;28;20442;-64
2021/03/26 07:33:36;;;;;;;69.28;45.85;;;;;;;17.48;47.61;101149.47;5033626;28;20102;-64
2021/03/26 07:36:23;;;;;;;67.28;43.90;;;;;;;17.64;47.90;101150.75;5033574;28;20033;-64
2021/03/26 07:39:01;;;;;;;66.97;43.88;;;;;;;17.73;47.45;101152.25;5051380;28;20028;-63
2021/03/26 07:41:36;;;;;;;67.90;45.20;;;;;;;18.04;46.78;101153.94;5033489;28;20024;-64
2021/03/26 07:44:21;;;;;;;74.72;44.53;;;;;;;17.68;47.58;101155.06;5051336;28;20476;-64
2021/03/26 07:47:24;;;;;;;71.10;45.58;;;;;;;17.70;47.63;101155.00;5033589;28;20063;-63
2021/03/26 07:50:17;;;;;;;69.18;46.33;;;;;;;17.30;48.94;101162.44;5051107;28;20029;-65
2021/03/26 07:53:03;;;;;;;78.90;45.00;;;;;;;17.22;47.91;101162.69;5051126;28;20021;-62
2021/03/26 07:55:39;;;;;;;70.15;45.03;;;;;;;17.80;47.40;101160.94;5033638;28;20028;-63
2021/03/26 07:58:16;;;;;;;75.25;44.85;;;;;;;17.79;47.19;101160.06;5033859;28;20396;-64
2021/03/26 08:01:03;;;;;;;69.05;45.38;;;;;;;17.88;47.08;101158.03;5051077;28;20412;-64
2021/03/26 08:03:49;;;;;;;75.20;45.85;;;;;;;17.56;47.95;101153.66;5051174;28;20488;-62
2021/03/26 08:06:18;;;;;;;71.18;47.08;;;;;;;17.41;48.03;101164.78;5051182;28;20544;-66
2021/03/26 08:08:51;;;;;;;74.13;48.30;;;;;;;17.41;47.94;101159.47;5033106;28;20078;-63
2021/03/26 08:11:25;;;;;;;73.22;45.67;;;;;;;17.86;47.32;101159.84;5020639;28;20507;-64
2021/03/26 08:14:04;;;;;;;70.53;48.17;;;;;;;17.76;47.32;101152.16;5054860;28;20029;-63
2021/03/26 08:16:53;;;;;;;75.93;49.33;;;;;;;17.37;48.03;101169.31;5036925;28;20123;-64
2021/03/26 08:19:41;;;;;;;78.05;50.25;;;;;;;17.87;48.22;101164.28;5054500;28;20056;-62
2021/03/26 08:22:28;;;;;;;83.45;50.05;;;;;;;17.47;48.68;101169.06;5036745;28;20044;-65
2021/03/26 08:25:24;;;;;;;88.70;52.47;;;;;;;17.61;49.55;101174.84;5054583;28;20450;-64
2021/03/26 08:28:11;;;;;;;78.15;50.17;;;;;;;17.47;48.80;101169.06;5054610;28;20028;-64
2021/03/26 08:31:14;;;;;;;77.30;50.13;;;;;;;17.69;48.43;101162.16;5036509;28;20036;-62
2021/03/26 08:34:06;;;;;;;74.85;47.20;;;;;;;18.61;45.50;101152.97;5036401;28;20384;-64
2021/03/26 08:36:37;;;;;;;74.93;49.00;;;;;;;18.95;44.42;101158.88;5054260;28;20026;-64
2021/03/26 08:39:16;;;;;;;78.88;50.30;;;;;;;19.06;45.39;101162.06;5036503;28;20029;-63
2021/03/26 08:41:44;;;;;;;71.32;47.63;;;;;;;18.89;44.92;101153.75;5036368;28;20087;-64
2021/03/26 08:44:16;;;;;;;74.47;48.75;;;;;;;19.64;44.12;101153.66;5036282;28;20513;-64
2021/03/26 08:46:46;;;;;;;77.20;49.53;;;;;;;20.62;42.51;101158.56;5036466;28;20047;-64
2021/03/26 08:49:43;;;;;;;71.10;47.17;;;;;;;21.21;41.25;101164.94;5036172;28;20021;-65
2021/03/26 08:52:33;;;;;;;65.57;47.88;;;;;;;20.54;40.78;101155.31;5036197;28;20029;-64
2021/03/26 08:55:20;;;;;;;68.93;45.40;;;;;;;20.36;42.84;101157.00;5036237;28;20404;-64
2021/03/26 08:58:10;;;;;;;71.20;47.53;;;;;;;20.47;40.94;101164.59;5019641;28;20052;-64
2021/03/26 09:01:09;;;;;;;69.95;46.72;;;;;;;19.96;42.21;101170.22;5035932;28;20023;-63
2021/03/26 09:03:48;;;;;;;74.55;47.85;;;;;;;20.60;43.03;101170.25;5053861;28;20017;-64
2021/03/26 09:06:33;;;;;;;76.63;49.10;;;;;;;22.13;39.96;101164.16;5036018;28;20023;-65
2021/03/26 09:09:17;;;;;;;71.68;48.05;;;;;;;23.45;36.63;101161.78;5035781;28;20029;-64
2021/03/26 09:12:03;;;;;;;63.42;44.38;;;;;;;25.03;33.71;101168.81;5053262;28;20501;-65
2021/03/26 09:14:38;;;;;;;62.20;43.88;;;;;;;25.45;32.07;101158.09;5053963;28;20391;-64
2021/03/26 09:17:15;;;;;;;62.72;43.72;;;;;;;24.47;34.55;101170.34;5053613;28;20477;-62
2021/03/26 09:19:49;;;;;;;64.40;44.47;;;;;;;24.14;34.82;101165.16;5018940;28;20051;-64
2021/03/26 09:22:51;;;;;;;64.13;44.03;;;;;;;22.06;38.59;101165.41;5035558;28;20025;-65
2021/03/26 09:25:40;;;;;;;64.88;45.95;;;;;;;20.95;40.27;101178.59;5035610;28;20115;-64
2021/03/26 09:28:11;;;;;;;67.43;43.70;;;;;;;21.25;39.41;101178.16;5035625;28;20017;-63
2021/03/26 09:30:54;;;;;;;61.72;43.33;;;;;;;22.24;38.13;101176.19;5035381;28;20044;-64
2021/03/26 09:33:20;;;;;;;58.58;40.97;;;;;;;21.89;37.83;101176.97;5035503;28;20499;-64
2021/03/26 09:36:02;;;;;;;61.92;43.40;;;;;;;21.68;39.17;101179.75;5053050;28;20056;-64
2021/03/26 09:38:43;;;;;;;61.58;42.13;;;;;;;21.17;40.36;101184.81;5018997;28;20086;-63
2021/03/26 09:41:26;;;;;;;57.80;40.92;;;;;;;20.49;40.73;101176.09;5035314;28;20480;-64
2021/03/26 09:44:07;;;;;;;60.72;41.25;;;;;;;20.91;40.07;101176.13;5037193;28;20460;-64
2021/03/26 09:46:41;;;;;;;59.20;39.72;;;;;;;20.49;40.42;101174.31;5053032;28;20025;-65
2021/03/26 09:49:40;;;;;;;55.58;39.30;;;;;;;22.00;38.46;101168.38;5035102;28;20496;-64
2021/03/26 09:52:11;;;;;;;56.85;38.72;;;;;;;22.53;36.58;101165.75;5035086;28;20075;-63
2021/03/26 09:54:39;;;;;;;57.67;40.38;;;;;;;24.76;32.93;101165.97;5052930;28;20025;-65
2021/03/26 09:57:20;;;;;;;56.05;39.30;;;;;;;27.71;30.15;101170.72;5034920;28;20039;-63
2021/03/26 10:00:10;;;;;;;53.47;36.90;;;;;;;29.39;25.92;101171.41;5052689;28;20025;-66
2021/03/26 10:02:44;;;;;;;47.85;36.72;;;;;;;29.66;26.45;101158.41;5052611;28;20455;-67
2021/03/26 10:05:27;;;;;;;54.20;38.70;;;;;;;29.21;26.02;101165.63;5034869;28;20120;-64
2021/03/26 10:08:07;;;;;;;48.90;36.22;;;;;;;27.68;27.76;101169.13;5034883;28;20027;-63
2021/03/26 10:13:01;;;;;;;51.60;36.25;;;;;;;28.37;26.88;101161.31;5034907;28;20023;-65
2021/03/26 10:15:33;;;;;;;44.95;34.35;;;;;;;29.95;25.09;101164.09;5052547;28;20082;-64
2021/03/26 10:18:07;;;;;;;45.25;34.55;;;;;;;29.75;25.89;101167.63;5034500;28;20556;-64
2021/03/26 10:21:01;;;;;;;48.65;35.05;;;;;;;28.81;25.42;101148.78;5034586;28;20024;-65
2021/03/26 10:23:45;;;;;;;48.92;35.45;;;;;;;28.23;26.48;101149.63;5016140;28;20105;-65
2021/03/26 10:26:19;;;;;;;43.42;35.55;;;;;;;27.58;26.47;101143.66;5052213;28;20472;-65
2021/03/26 10:28:44;;;;;;;50.00;35.08;;;;;;;26.98;28.16;101155.16;5034358;28;20051;-64
2021/03/26 10:31:11;;;;;;;48.42;35.08;;;;;;;27.19;27.84;101147.34;5052112;28;20484;-64
2021/03/26 10:34:16;;;;;;;41.40;32.58;;;;;;;26.15;29.74;101149.97;5051908;28;20029;-64
2021/03/26 10:36:50;;;;;;;47.70;32.70;;;;;;;24.52;31.42;101159.31;4951685;29;20128;-65
2021/03/26 10:39:19;;;;;;;48.75;34.38;;;;;;;25.29;30.29;101160.03;5021955;28;20048;-64
2021/03/26 10:41:49;;;;;;;49.47;33.97;;;;;;;26.63;28.73;101153.94;5034134;28;20564;-63
2021/03/26 10:44:38;;;;;;;45.00;33.25;;;;;;;27.90;28.00;101165.66;5051980;28;20021;-63
2021/03/26 10:47:23;;;;;;;48.05;33.47;;;;;;;25.47;29.82;101149.88;5051980;28;20100;-65
2021/03/26 10:49:55;;;;;;;39.47;29.00;;;;;;;24.88;30.41;101148.19;5034008;28;20029;-64
2021/03/26 10:52:25;;;;;;;41.35;31.00;;;;;;;27.09;29.07;101144.44;5033944;28;20024;-65
2021/03/26 10:54:58;;;;;;;47.22;36.80;;;;;;;27.31;27.71;101150.13;5034074;28;20487;-66
2021/03/26 10:58:05;;;;;;;53.25;37.25;;;;;;;27.90;27.38;101143.09;5033943;28;20494;-63
2021/03/26 11:00:37;;;;;;;53.55;37.05;;;;;;;28.59;25.95;101121.63;5017790;28;20450;-65
2021/03/26 11:03:11;;;;;;;48.92;36.58;;;;;;;31.00;23.80;101119.00;5033964;28;20025;-65
2021/03/26 11:05:36;;;;;;;53.30;37.60;;;;;;;31.43;23.37;101114.22;5033993;28;20036;-64
2021/03/26 11:08:01;;;;;;;46.90;36.13;;;;;;;30.41;24.32;101119.53;5051579;28;20343;-64
2021/03/26 11:10:30;;;;;;;48.37;35.40;;;;;;;32.48;22.00;101116.41;5051543;28;20033;-64
2021/03/26 11:13:03;;;;;;;50.05;37.88;;;;;;;34.72;20.04;101104.16;5033691;28;20075;-64
2021/03/26 11:15:34;;;;;;;47.28;37.53;;;;;;;35.09;19.17;101102.06;5033927;28;20107;-65
2021/03/26 11:18:19;;;;;;;48.85;37.58;;;;;;;35.26;19.13;101102.16;5033727;28;20033;-66
2021/03/26 11:20:50;;;;;;;51.45;39.65;;;;;;;34.48;19.50;101099.38;5033685;28;20024;-65
2021/03/26 11:23:19;;;;;;;54.30;40.03;;;;;;;32.11;21.06;101097.06;5033755;28;20037;-64
2021/03/26 11:25:46;;;;;;;49.85;38.40;;;;;;;32.54;20.15;101091.22;5033848;28;20028;-64
2021/03/26 11:28:21;;;;;;;50.30;39.70;;;;;;;31.16;21.98;101088.47;5033707;28;20508;-65
2021/03/26 11:31:01;;;;;;;50.72;39.63;;;;;;;31.44;22.55;101094.19;5033465;28;20029;-65
2021/03/26 11:33:34;;;;;;;56.47;39.00;;;;;;;30.23;23.00;101079.31;5033704;28;20028;-65
2021/03/26 11:36:01;;;;;;;47.72;38.85;;;;;;;30.98;22.67;101078.28;5033572;28;20798;-64
2021/03/26 11:38:29;;;;;;;48.97;35.97;;;;;;;31.96;21.75;101082.16;5033525;28;20500;-65
2021/03/26 11:41:04;;;;;;;54.72;39.42;;;;;;;30.53;23.09;101076.75;5033414;28;20021;-64
2021/03/26 11:43:40;;;;;;;55.92;40.00;;;;;;;30.49;22.19;101076.19;5051883;28;20029;-66
2021/03/26 11:46:12;;;;;;;46.47;36.65;;;;;;;33.65;20.39;101073.09;5055143;28;20021;-66
2021/03/26 11:48:57;;;;;;;46.72;38.42;;;;;;;34.37;18.94;101073.16;5037425;28;20024;-65
2021/03/26 11:51:33;;;;;;;52.25;38.88;;;;;;;33.81;19.88;101065.19;5037350;28;20094;-65
2021/03/26 11:54:07;;;;;;;50.53;37.95;;;;;;;34.78;18.66;101064.31;5037353;28;20024;-64